Terminal Aerodrome Forecast
Issued by NWS

Home | Current Version | Previous Version | Text Only | Print | Product List | Glossary On
Versions: 1 2 3 4 5 6 7 8 9 10 11 12 13 14 15 16
000
FTUS44 KOHX 281700
TAFCKV
TAF
KCKV 281724Z 2818/0118 06006KT P6SM BKN070 OVC100
     FM282100 13007KT P6SM OVC070
     FM010500 16006KT P6SM OVC025
     FM010800 17006KT P6SM OVC015
     FM011200 17006KT 4SM -RA OVC007=

USA.gov is the U.S. government's official web portal to all federal, state and local government web resources and services.